Insider trading report: insider purchases reported on July 1, 2019 , Part 2

This page lists insider stock purchases reported on July 1, 2019. To query the history of insider trading activities (stock purchases, sales, and option exercises) for a particular company, click on the Issuer column. For the most current insider trading transactions see Realtime Insider Trading Report. For insider stock sales reported on this day see insider trading report: insider sales reported on July 1, 2019.

 1   2 

Insider stock purchases reported on July 1, 2019 , Part 2 (This report is sorted by stock symbol).
Sort by
Symbol
Company Insider Name   Shares     Price   Sort by
Value($)
Trade
Date
MOTS Motus Gi Holdings, Inc. 1st time Hochman David P 10,000 3.00 30,000 2019-07-01
   Pruden Gary J 8,333 3.00 24,999 2019-07-01
   Pomeranz Mark (President and COO) 1,000 3.00 3,000 2019-07-01
   Jacobs Gary E. 8,333 3.00 24,999 2019-07-01
   Moran Timothy P. (Chief Executive Officer) 3,333 3.00 9,999 2019-07-01
MPB Mid Penn Bancorp Inc 1st time Kerwin Gregory M 40 24.95 998 2019-06-28
   Mowery Theodore W 80 24.95 1,996 2019-06-28
   Grubic Robert C 201 24.95 5,014 2019-06-28
   De Soto Matthew G 251 24.95 6,262 2019-06-28
   Boyer Steven T 200 24.95 4,990 2019-06-28
   Klinger Robert E 120 24.95 2,994 2019-06-28
   Quandel Noble C Jr 120 24.95 2,994 2019-06-28
   Moisey Robert J 180 24.95 4,491 2019-06-28
   Frank Joel L. 100 24.95 2,495 2019-06-28
   Novak Alan P. 24 24.95 598 2019-06-28
NERV Minerva Neurosciences, Inc. 1st time Doyle William F (Director) 3,500 5.50 19,250 2019-06-27
NYMX Nymox Pharmaceutical Corp 1st time Robinson James George (Director) 1,110 1.48 1,637 2019-06-28
   Robinson James George (Director) 8,890 31.19 277,314 2019-06-29
PBI Pitney Bowes Inc /de/ 1st time Dies Jason (EVP & Pres. of SMB Solutions) 1,500 4.03 6,045 2019-06-30
PENC Pen Inc. 1st time Berman Ronald J 67,631 .40 27,052 2018-06-28
   Berman Tom J. (President) 13,526 .40 5,410 2018-06-28
PFHO Pacific Health Care Organization Inc 1st time Kubota Tom (CEO & President) 2,000 5.00 10,000 2019-06-29
PW Power Reit 1st time Wenger Virgil E 700 .00 0 2019-06-28
   Haynes Patrick R Iii 700 .00 0 2019-06-28
   Susman William 700 .00 0 2019-06-28
   Hobor Justinian 700 .00 0 2019-06-28
RIG Transocean Ltd. 1st time Davis Howard E (EVP, CAO & CIO) 98,049 6.35 622,611 2019-06-28
RMBI Richmond Mutual Bancorporation, Inc. 1st time Benziger Donald A (EVP, Chief Financial Officer) 100 10.00 1,000 2019-07-01
   Hays Cathy J. (SVP, Chief Audit Executive) 500 10.00 5,000 2019-07-01
   Witte Paul J. (SVP Commercial Lending Manager) 5,100 10.00 51,000 2019-07-01
   Brittenham Beth A. (SVP, HR Director) 10,000 10.00 100,000 2019-07-01
   Stoops Pamela S. (SVP, Retail Lending Manager) 10,000 10.00 100,000 2019-07-01
   Fullerton Albert E. Jr. (SVP, Chief Information Officer) 3,000 10.00 30,000 2019-07-01
   Wetzel M. Lynn (Director) 23,389 10.00 233,890 2019-07-01
   Cruz-uribe Kathryn (Director) 30,000 10.00 300,000 2019-07-01
   Weinert Dean W. (President, Mutual Federal) 30,000 10.00 300,000 2019-07-01
   Spears Alan M. (Senior Vice President, Trust) 1,000 10.00 10,000 2019-07-01
   Jackson Jeffrey A. (Director) 25,000 10.00 250,000 2019-07-01
   Stevens W. Ray Iii (Director) 15,000 10.00 150,000 2019-07-01
   Blum E. Michael (Director) 15,000 10.00 150,000 2019-07-01
   Kleer Garry D. (President, CEO) 30,000 10.00 300,000 2019-07-01
   Mann Lindley S. (Director) 40,000 10.00 400,000 2019-07-01
   Weinert Robin S. (SVP Operations/Retail Banking) 30,000 10.00 300,000 2019-07-01
SFEF Santa Fe Financial Corp 1st time Intergroup Corp (10% Owner) 3,000 36.00 108,000 2019-06-27
STXB Spirit Of Texas Bancshares, Inc. 1st time Patel Akash J. (Director) 88 22.36 1,967 2019-06-28
TPL Texas Pacific Land Trust 1st time Horizon Kinetics Asset Management Llc (10% Owner) 50 795.24 39,762 2019-06-28
TRC Tejon Ranch Co 1st time Tisch Daniel R (Director) 70,097 16.50 1,156,600 2019-06-28
TURN 180 Degree Capital Corp. /ny/ 1st time Gift Alicia M (Treasurer, Secretary) 3,100 1.97 6,103 2019-06-28
UPL Ultra Petroleum Corp 1st time Rogers A Kent (V.P., Drilling & Completions) 2,000 .19 384 2019-06-28
VBIV Vbi Vaccines Inc/bc 1st time Diaz-mitoma Francisco (Chief Medical Officer) 8,000 1.07 8,560 2019-06-27
VRML Vermillion, Inc. 1st time Palmieri Valerie Barber (President and CEO) 37,500 .80 30,000 2019-06-28

 1   2